createdAt,value
2018-07-09T00:01:00.335Z,7.40
2018-07-09T00:03:28.842Z,9.03
2018-07-09T00:05:57.608Z,8.40
2018-07-09T00:08:26.457Z,8.67
2018-07-09T00:11:02.660Z,7.77
2018-07-09T00:13:31.824Z,7.60
2018-07-09T00:16:01.442Z,8.43
2018-07-09T00:18:30.102Z,7.20
2018-07-09T00:20:58.677Z,7.27
2018-07-09T00:23:27.295Z,9.33
2018-07-09T00:25:56.715Z,9.20
2018-07-09T00:28:25.898Z,7.57
2018-07-09T00:30:54.410Z,8.30
2018-07-09T00:33:23.223Z,8.63
2018-07-09T00:35:51.745Z,7.83
2018-07-09T00:38:20.649Z,9.97
2018-07-09T00:40:50.914Z,8.20
2018-07-09T00:43:19.494Z,8.60
2018-07-09T00:45:48.074Z,8.70
2018-07-09T00:48:16.871Z,8.87
2018-07-09T00:50:45.660Z,9.23
2018-07-09T00:53:14.144Z,10.83
2018-07-09T00:55:42.768Z,10.93
2018-07-09T00:58:11.335Z,9.10
2018-07-09T01:00:39.930Z,10.77
2018-07-09T01:03:08.440Z,10.27
2018-07-09T01:05:36.947Z,12.35
2018-07-09T01:08:05.498Z,11.80
2018-07-09T01:10:45.678Z,10.23
2018-07-09T01:13:14.215Z,11.47
2018-07-09T01:15:42.732Z,11.07
2018-07-09T01:18:11.312Z,11.95
2018-07-09T01:20:39.895Z,10.70
2018-07-09T01:23:08.381Z,11.50
2018-07-09T01:25:36.935Z,12.20
2018-07-09T01:28:05.451Z,10.47
2018-07-09T01:30:35.944Z,12.53
2018-07-09T01:33:04.520Z,12.07
2018-07-09T01:35:33.485Z,13.60
2018-07-09T01:38:01.974Z,14.20
2018-07-09T01:40:30.456Z,14.70
2018-07-09T01:42:58.975Z,13.87
2018-07-09T01:45:27.490Z,14.23
2018-07-09T01:47:55.995Z,13.87
2018-07-09T01:50:24.503Z,11.73
2018-07-09T01:52:52.716Z,13.60
2018-07-09T01:55:21.256Z,15.43
2018-07-09T01:57:49.794Z,19.80
2018-07-09T02:00:18.287Z,19.52
2018-07-09T02:02:46.816Z,21.33
2018-07-09T02:05:15.321Z,22.60
2018-07-09T02:07:43.817Z,22.98
2018-07-09T02:10:12.362Z,25.00
2018-07-09T02:12:40.860Z,26.10
2018-07-09T02:15:09.695Z,28.50
2018-07-09T02:17:38.233Z,24.60
2018-07-09T02:20:07.119Z,21.68
2018-07-09T02:22:35.657Z,22.98
2018-07-09T02:25:04.212Z,23.00
2018-07-09T02:27:33.648Z,19.77
2018-07-09T02:30:02.152Z,18.73
2018-07-09T02:32:30.649Z,19.12
2018-07-09T02:34:59.148Z,17.80
2018-07-09T02:37:27.652Z,17.37
2018-07-09T02:39:56.339Z,19.57
2018-07-09T02:42:24.857Z,16.05
2018-07-09T02:44:53.674Z,18.37
2018-07-09T02:47:22.181Z,17.73
2018-07-09T02:49:51.475Z,17.42
2018-07-09T02:52:20.013Z,15.93
2018-07-09T02:54:48.548Z,16.37
2018-07-09T03:04:03.560Z,14.85
2018-07-09T03:06:32.072Z,16.57
2018-07-09T03:09:00.583Z,14.23
2018-07-09T03:11:29.208Z,16.93
2018-07-09T03:13:57.714Z,35.15
2018-07-09T03:16:26.221Z,43.05
2018-07-09T03:18:54.783Z,38.28
2018-07-09T03:21:23.449Z,39.00
2018-07-09T03:23:51.932Z,39.13
2018-07-09T03:26:21.569Z,32.73
2018-07-09T03:28:50.051Z,31.02
2018-07-09T03:31:18.683Z,28.85
2018-07-09T03:33:47.230Z,28.77
2018-07-09T03:36:15.932Z,29.02
2018-07-09T03:38:44.462Z,27.48
2018-07-09T03:41:13.276Z,29.48
2018-07-09T03:43:41.786Z,28.20
2018-07-09T03:46:10.280Z,24.72
2018-07-09T03:48:38.826Z,31.90
2018-07-09T03:51:07.376Z,45.80
2018-07-09T03:53:35.877Z,60.90
2018-07-09T03:56:04.485Z,66.15
2018-07-09T03:58:33.125Z,59.20
2018-07-09T04:01:01.734Z,54.65
2018-07-09T04:03:30.274Z,59.05
2018-07-09T04:05:58.834Z,53.52
2018-07-09T04:08:27.359Z,58.78
2018-07-09T04:10:55.899Z,52.73
2018-07-09T04:13:24.508Z,56.10
2018-07-09T04:15:53.028Z,54.48
2018-07-09T04:18:24.716Z,53.10
2018-07-09T04:20:55.187Z,52.77
2018-07-09T04:23:23.668Z,40.40
2018-07-09T04:25:52.666Z,39.60
2018-07-09T04:28:21.546Z,33.97
2018-07-09T04:30:50.100Z,29.60
2018-07-09T04:33:18.904Z,23.37
2018-07-09T04:35:47.420Z,19.40
2018-07-09T04:38:16.006Z,17.23
2018-07-09T04:40:44.497Z,17.33
2018-07-09T04:43:13.151Z,15.23
2018-07-09T04:45:41.645Z,15.60
2018-07-09T04:48:10.168Z,12.70
2018-07-09T04:50:38.768Z,13.17
2018-07-09T04:53:07.260Z,14.87
2018-07-09T04:55:35.804Z,14.33
2018-07-09T04:58:04.507Z,13.40
2018-07-09T05:00:33.009Z,14.57
2018-07-09T05:03:01.547Z,13.23
2018-07-09T05:05:30.058Z,14.07
2018-07-09T05:07:58.545Z,14.03
2018-07-09T05:10:27.126Z,14.30
2018-07-09T05:12:55.967Z,11.87
2018-07-09T05:15:24.543Z,13.40
2018-07-09T05:17:53.125Z,12.70
2018-07-09T05:20:21.647Z,12.50
2018-07-09T05:22:50.210Z,11.03
2018-07-09T05:25:18.451Z,12.53
2018-07-09T05:27:46.925Z,12.40
2018-07-09T05:30:15.395Z,12.73
2018-07-09T05:32:44.854Z,12.10
2018-07-09T05:35:13.389Z,12.53
2018-07-09T05:37:41.949Z,10.43
2018-07-09T05:40:10.517Z,10.00
2018-07-09T05:42:39.152Z,10.83
2018-07-09T05:45:07.875Z,11.37
2018-07-09T05:47:36.765Z,10.80
2018-07-09T05:50:05.337Z,10.70
2018-07-09T05:52:33.832Z,10.77
2018-07-09T05:55:02.452Z,8.30
2018-07-09T05:57:30.987Z,9.50
2018-07-09T05:59:59.574Z,10.20
2018-07-09T06:02:28.782Z,9.93
2018-07-09T06:04:57.361Z,10.40
2018-07-09T06:07:25.887Z,7.47
2018-07-09T06:09:54.435Z,8.07
2018-07-09T06:12:22.985Z,7.27
2018-07-09T06:14:51.508Z,5.23
2018-07-09T06:17:20.081Z,6.00
2018-07-09T06:19:48.615Z,6.27
2018-07-09T06:22:17.143Z,5.90
2018-07-09T06:24:45.755Z,6.00
2018-07-09T06:27:14.286Z,6.00
2018-07-09T06:29:42.924Z,5.70
2018-07-09T06:32:11.525Z,5.20
2018-07-09T06:34:40.083Z,5.63
2018-07-09T06:37:08.613Z,4.60
2018-07-09T06:39:37.746Z,5.60
2018-07-09T06:42:06.296Z,5.07
2018-07-09T06:44:34.994Z,5.10
2018-07-09T06:47:03.580Z,5.63
2018-07-09T06:49:32.205Z,5.67
2018-07-09T06:52:00.725Z,3.80
2018-07-09T06:54:29.297Z,3.77
2018-07-09T06:56:57.833Z,4.73
2018-07-09T06:59:26.375Z,3.80
2018-07-09T07:01:54.911Z,3.77
2018-07-09T07:04:23.432Z,4.23
2018-07-09T07:06:51.964Z,4.47
2018-07-09T07:09:20.182Z,5.07
2018-07-09T07:11:48.667Z,3.73
2018-07-09T07:14:17.332Z,5.10
2018-07-09T07:16:45.800Z,4.83
2018-07-09T07:19:14.291Z,4.43
2018-07-09T07:21:42.794Z,5.50
2018-07-09T07:24:11.339Z,4.43
2018-07-09T07:26:39.831Z,4.60
2018-07-09T07:29:09.479Z,4.90
2018-07-09T07:31:38.058Z,4.60
2018-07-09T07:34:06.658Z,4.63
2018-07-09T07:36:35.179Z,4.73
2018-07-09T07:39:03.966Z,4.43
2018-07-09T07:41:32.672Z,4.07
2018-07-09T07:44:01.223Z,4.17
2018-07-09T07:46:29.769Z,5.00
2018-07-09T07:48:58.265Z,6.60
2018-07-09T07:51:26.763Z,4.30
2018-07-09T07:53:55.311Z,3.90
2018-07-09T07:56:23.861Z,4.13
2018-07-09T07:58:52.427Z,4.70
2018-07-09T08:01:22.444Z,4.00
2018-07-09T08:03:50.959Z,4.10
2018-07-09T08:06:19.461Z,4.07
2018-07-09T08:08:48.046Z,5.00
2018-07-09T08:11:16.596Z,4.27
2018-07-09T08:13:45.177Z,3.97
2018-07-09T08:16:14.653Z,4.03
2018-07-09T08:18:44.038Z,3.10
2018-07-09T08:21:12.550Z,4.67
2018-07-09T08:23:41.084Z,3.10
2018-07-09T08:26:09.590Z,2.67
2018-07-09T08:28:38.147Z,3.00
2018-07-09T08:31:06.706Z,3.17
2018-07-09T08:33:35.247Z,3.50
2018-07-09T08:36:03.801Z,3.07
2018-07-09T08:38:33.517Z,2.80
2018-07-09T08:41:02.124Z,3.07
2018-07-09T08:43:30.577Z,2.80
2018-07-09T08:45:59.072Z,2.90
2018-07-09T08:48:28.801Z,2.63
2018-07-09T08:50:57.303Z,2.47
2018-07-09T08:53:25.853Z,2.60
2018-07-09T08:55:55.288Z,2.10
2018-07-09T08:58:23.754Z,3.57
2018-07-09T09:00:52.275Z,2.37
2018-07-09T09:03:20.782Z,3.20
2018-07-09T09:05:50.512Z,3.20
2018-07-09T09:08:19.199Z,4.10
2018-07-09T09:10:47.747Z,2.97
2018-07-09T09:13:15.962Z,2.53
2018-07-09T09:15:44.650Z,2.10
2018-07-09T09:18:13.100Z,2.73
2018-07-09T09:20:41.607Z,1.90
2018-07-09T09:23:10.255Z,2.10
2018-07-09T09:25:38.822Z,1.70
2018-07-09T09:28:07.551Z,2.20
2018-07-09T09:30:36.117Z,2.53
2018-07-09T09:33:04.630Z,3.60
2018-07-09T09:35:33.206Z,2.90
2018-07-09T09:38:01.726Z,2.33
2018-07-09T09:40:30.265Z,2.33
2018-07-09T09:42:58.830Z,2.27
2018-07-09T09:45:27.330Z,2.37
2018-07-09T09:47:55.927Z,2.27
2018-07-09T09:50:24.500Z,2.40
2018-07-09T09:52:53.081Z,2.10
2018-07-09T09:55:21.614Z,1.80
2018-07-09T09:57:50.086Z,0.93
2018-07-09T10:00:22.293Z,1.77
2018-07-09T10:02:50.786Z,1.70
2018-07-09T10:05:18.977Z,1.50
2018-07-09T10:07:47.479Z,1.90
2018-07-09T10:10:15.970Z,2.00
2018-07-09T10:12:44.431Z,2.10
2018-07-09T10:15:13.022Z,1.83
2018-07-09T10:17:42.193Z,1.90
2018-07-09T10:20:10.712Z,2.47
2018-07-09T10:22:39.371Z,1.87
2018-07-09T10:25:07.885Z,2.80
2018-07-09T10:27:36.425Z,2.07
2018-07-09T10:30:04.772Z,1.53
2018-07-09T10:32:34.094Z,2.03
2018-07-09T10:35:02.583Z,2.47
2018-07-09T10:37:31.133Z,2.40
2018-07-09T10:39:59.648Z,2.60
2018-07-09T10:42:28.167Z,2.17
2018-07-09T10:44:56.662Z,2.77
2018-07-09T10:47:25.228Z,2.17
2018-07-09T10:49:54.004Z,2.20
2018-07-09T10:52:22.806Z,1.63
2018-07-09T10:54:51.541Z,1.33
2018-07-09T10:57:20.289Z,2.00
2018-07-09T10:59:49.385Z,1.47
2018-07-09T11:02:18.599Z,1.60
2018-07-09T11:04:47.936Z,1.67
2018-07-09T11:07:16.572Z,1.10
2018-07-09T11:09:45.128Z,1.40
2018-07-09T11:12:13.719Z,1.60
2018-07-09T11:14:42.208Z,1.50
2018-07-09T11:17:10.777Z,1.77
2018-07-09T11:19:39.301Z,1.50
2018-07-09T11:22:07.860Z,1.30
2018-07-09T11:24:36.356Z,2.37
2018-07-09T11:27:04.879Z,2.50
2018-07-09T11:29:33.372Z,2.30
2018-07-09T11:32:02.785Z,1.90
2018-07-09T11:34:31.282Z,1.20
2018-07-09T11:37:00.287Z,1.50
2018-07-09T11:39:28.834Z,1.90
2018-07-09T11:41:57.484Z,2.13
2018-07-09T11:44:26.590Z,2.00
2018-07-09T11:46:55.108Z,1.70
2018-07-09T11:49:23.639Z,2.83
2018-07-09T11:51:52.173Z,1.40
2018-07-09T11:54:20.676Z,1.90
2018-07-09T11:56:49.147Z,2.17
2018-07-09T11:59:17.645Z,1.90
2018-07-09T12:01:46.168Z,1.80
2018-07-09T12:04:14.666Z,2.30
2018-07-09T12:06:43.796Z,1.93
2018-07-09T12:09:12.516Z,2.10
2018-07-09T12:11:41.185Z,2.03
2018-07-09T12:14:09.790Z,1.87
2018-07-09T12:16:38.421Z,1.93
2018-07-09T12:19:07.005Z,2.10
2018-07-09T12:21:39.101Z,1.67
2018-07-09T12:24:07.599Z,1.53
2018-07-09T12:26:36.184Z,2.13
2018-07-09T12:29:05.528Z,2.10
2018-07-09T12:31:34.055Z,1.80
2018-07-09T12:34:02.552Z,1.67
2018-07-09T12:36:31.133Z,2.70
2018-07-09T12:38:59.605Z,1.40
2018-07-09T12:41:28.405Z,2.03
2018-07-09T12:43:56.906Z,1.87
2018-07-09T12:46:26.151Z,1.70
2018-07-09T12:48:54.640Z,2.30
2018-07-09T12:51:24.408Z,2.17
2018-07-09T12:53:53.147Z,2.37
2018-07-09T12:56:21.634Z,1.70
2018-07-09T12:58:50.151Z,2.43
2018-07-09T13:01:18.674Z,2.10
2018-07-09T13:03:47.472Z,1.73
2018-07-09T13:06:16.977Z,2.30
2018-07-09T13:08:45.593Z,1.80
2018-07-09T13:11:14.169Z,1.90
2018-07-09T13:13:42.682Z,2.00
2018-07-09T13:16:11.265Z,1.73
2018-07-09T13:18:39.791Z,2.33
2018-07-09T13:21:08.381Z,1.90
2018-07-09T13:23:37.585Z,2.10
2018-07-09T13:26:06.130Z,2.13
2018-07-09T13:28:34.686Z,1.67
2018-07-09T13:31:03.517Z,2.00
2018-07-09T13:33:32.317Z,2.03
2018-07-09T13:36:00.917Z,1.50
2018-07-09T13:38:30.704Z,2.00
2018-07-09T13:40:59.187Z,2.70
2018-07-09T13:43:27.699Z,2.50
2018-07-09T13:45:55.899Z,2.40
2018-07-09T13:48:24.444Z,2.97
2018-07-09T13:50:53.076Z,2.27
2018-07-09T13:53:21.864Z,2.60
2018-07-09T13:55:51.705Z,1.97
2018-07-09T13:58:20.296Z,1.63
2018-07-09T14:00:48.775Z,1.43
2018-07-09T14:03:18.836Z,1.33
2018-07-09T14:05:47.413Z,1.60
2018-07-09T14:08:15.922Z,2.10
2018-07-09T14:10:44.497Z,1.80
2018-07-09T14:13:13.034Z,1.70
2018-07-09T14:15:41.592Z,3.73
2018-07-09T14:18:10.470Z,2.03
2018-07-09T14:20:41.224Z,2.20
2018-07-09T14:23:10.810Z,1.73
2018-07-09T14:25:39.620Z,1.83
2018-07-09T14:28:08.136Z,3.00
2018-07-09T14:30:36.956Z,1.63
2018-07-09T14:33:05.756Z,1.43
2018-07-09T14:35:34.969Z,1.70
2018-07-09T14:38:03.489Z,1.30
2018-07-09T14:40:31.954Z,2.40
2018-07-09T14:43:01.076Z,1.00
2018-07-09T14:45:30.217Z,1.50
2018-07-09T14:47:58.676Z,1.50
2018-07-09T14:50:27.154Z,1.50
2018-07-09T14:52:57.074Z,1.27
2018-07-09T14:55:25.563Z,1.57
2018-07-09T14:57:54.072Z,1.70
2018-07-09T15:00:22.641Z,2.00
2018-07-09T15:02:51.152Z,1.83
2018-07-09T15:05:19.655Z,1.57
2018-07-09T15:07:48.135Z,2.67
2018-07-09T15:10:16.603Z,2.17
2018-07-09T15:12:45.111Z,2.73
2018-07-09T15:15:14.265Z,2.90
2018-07-09T15:17:44.102Z,2.40
2018-07-09T15:20:12.622Z,2.30
2018-07-09T15:22:41.091Z,2.23
2018-07-09T15:25:09.590Z,2.60
2018-07-09T15:27:38.215Z,2.67
2018-07-09T15:30:06.795Z,3.03
2018-07-09T15:32:35.315Z,2.33
2018-07-09T15:35:03.859Z,2.57
2018-07-09T15:37:32.437Z,2.77
2018-07-09T15:40:01.016Z,2.37
2018-07-09T15:42:29.591Z,2.27
2018-07-09T15:44:58.182Z,2.33
2018-07-09T15:47:26.680Z,2.00
2018-07-09T15:49:55.158Z,2.93
2018-07-09T15:52:23.644Z,2.20
2018-07-09T15:54:52.301Z,1.90
2018-07-09T15:57:21.930Z,1.80
2018-07-09T15:59:51.123Z,2.20
2018-07-09T16:02:19.708Z,1.53
2018-07-09T16:04:48.376Z,1.47
2018-07-09T16:07:17.073Z,1.53
2018-07-09T16:09:45.632Z,1.37
2018-07-09T16:12:14.251Z,1.97
2018-07-09T16:14:42.754Z,1.90
2018-07-09T16:17:11.371Z,1.83
2018-07-09T16:19:39.864Z,1.20
2018-07-09T16:22:10.932Z,1.20
2018-07-09T16:24:39.395Z,1.37
2018-07-09T16:27:08.534Z,1.00
2018-07-09T16:29:37.122Z,1.27
2018-07-09T16:32:05.618Z,1.07
2018-07-09T16:34:34.125Z,1.10
2018-07-09T16:37:03.164Z,0.83
2018-07-09T16:39:31.675Z,0.80
2018-07-09T16:42:00.213Z,0.70
2018-07-09T16:44:28.832Z,0.90
2018-07-09T16:46:57.358Z,0.73
2018-07-09T16:49:25.920Z,0.90
2018-07-09T16:51:54.465Z,0.50
2018-07-09T16:54:22.963Z,0.87
2018-07-09T16:56:51.598Z,0.80
2018-07-09T16:59:20.188Z,1.10
2018-07-09T17:01:48.720Z,1.13
2018-07-09T17:04:17.259Z,1.03
2018-07-09T17:06:45.785Z,1.13
2018-07-09T17:09:14.364Z,1.70
2018-07-09T17:11:42.927Z,1.40
2018-07-09T17:14:11.413Z,1.40
2018-07-09T17:16:40.004Z,1.13
2018-07-09T17:19:08.583Z,1.47
2018-07-09T17:21:37.007Z,1.27
2018-07-09T17:24:05.857Z,1.03
2018-07-09T17:26:34.609Z,0.93
2018-07-09T17:29:02.953Z,1.20
2018-07-09T17:31:31.738Z,1.50
2018-07-09T17:34:01.009Z,1.70
2018-07-09T17:36:29.522Z,2.10
2018-07-09T17:38:58.976Z,1.50
2018-07-09T17:41:27.483Z,1.73
2018-07-09T17:43:56.191Z,1.60
2018-07-09T17:46:24.757Z,1.90
2018-07-09T17:48:53.266Z,1.93
2018-07-09T17:51:21.824Z,1.57
2018-07-09T17:53:50.829Z,1.53
2018-07-09T17:56:19.526Z,1.57
2018-07-09T17:58:49.238Z,1.83
2018-07-09T18:01:17.928Z,1.83
2018-07-09T18:03:46.558Z,1.80
2018-07-09T18:06:14.777Z,1.23
2018-07-09T18:08:43.343Z,1.80
2018-07-09T18:11:11.902Z,1.50
2018-07-09T18:13:41.234Z,4.13
2018-07-09T18:16:09.814Z,1.10
2018-07-09T18:18:38.414Z,1.60
2018-07-09T18:21:06.928Z,1.20
2018-07-09T18:23:35.424Z,2.00
2018-07-09T18:26:03.954Z,1.20
2018-07-09T18:28:32.493Z,1.50
2018-07-09T18:31:00.715Z,2.00
2018-07-09T18:33:29.203Z,1.00
2018-07-09T18:35:57.772Z,1.60
2018-07-09T18:38:26.330Z,1.13
2018-07-09T18:40:55.062Z,1.47
2018-07-09T18:43:23.580Z,1.40
2018-07-09T18:45:52.761Z,1.97
2018-07-09T18:48:21.484Z,1.80
2018-07-09T18:50:50.009Z,1.33
2018-07-09T18:53:18.530Z,1.70
2018-07-09T18:55:47.043Z,1.47
2018-07-09T18:58:15.569Z,2.40
2018-07-09T19:00:44.068Z,2.00
2018-07-09T19:03:12.602Z,1.83
2018-07-09T19:05:52.112Z,2.20
2018-07-09T19:08:20.747Z,1.60
2018-07-09T19:10:49.309Z,3.97
2018-07-09T19:13:17.902Z,2.90
2018-07-09T19:15:46.547Z,2.20
2018-07-09T19:18:27.555Z,2.57
2018-07-09T19:21:33.748Z,2.47
2018-07-09T19:24:02.680Z,2.50
2018-07-09T19:26:30.011Z,2.53
2018-07-09T19:28:57.396Z,3.07
2018-07-09T19:31:24.775Z,2.30
2018-07-09T19:33:52.144Z,3.50
2018-07-09T19:36:19.547Z,3.10
2018-07-09T19:38:46.902Z,4.80
2018-07-09T19:41:14.316Z,5.20
2018-07-09T19:43:41.911Z,4.47
2018-07-09T19:46:09.290Z,5.60
2018-07-09T19:48:36.687Z,4.53
2018-07-09T19:51:04.049Z,5.60
2018-07-09T19:53:31.424Z,6.33
2018-07-09T19:55:58.780Z,6.20
2018-07-09T19:58:26.316Z,6.10
2018-07-09T20:00:53.652Z,7.27
2018-07-09T20:03:21.032Z,8.53
2018-07-09T20:05:48.417Z,7.57
2018-07-09T20:08:15.782Z,7.43
2018-07-09T20:10:48.402Z,7.37
2018-07-09T20:13:21.003Z,6.97
2018-07-09T20:15:53.784Z,8.23
2018-07-09T20:18:21.155Z,7.20
2018-07-09T20:20:48.650Z,7.17
2018-07-09T20:23:16.027Z,7.40
2018-07-09T20:25:43.371Z,7.10
2018-07-09T20:28:10.799Z,7.47
2018-07-09T20:30:38.274Z,7.37
2018-07-09T20:33:06.625Z,6.80
2018-07-09T20:35:34.093Z,7.50
2018-07-09T20:38:01.463Z,6.93
2018-07-09T20:40:28.833Z,8.30
2018-07-09T20:42:56.229Z,6.77
2018-07-09T20:45:23.687Z,7.63
2018-07-09T20:47:51.060Z,7.10
2018-07-09T20:50:18.434Z,9.10
2018-07-09T20:52:46.456Z,8.60
2018-07-09T20:55:13.810Z,8.53
2018-07-09T20:57:41.282Z,9.07
2018-07-09T21:00:08.622Z,9.60
2018-07-09T21:02:36.096Z,9.47
2018-07-09T21:05:03.588Z,8.63
2018-07-09T21:07:30.966Z,10.23
2018-07-09T21:09:58.332Z,10.17
2018-07-09T21:12:26.754Z,10.03
2018-07-09T21:14:55.235Z,11.23
2018-07-09T21:17:22.621Z,10.60
2018-07-09T21:19:49.985Z,11.63
2018-07-09T21:22:17.361Z,13.20
2018-07-09T21:24:44.731Z,11.50
2018-07-09T21:27:12.118Z,11.87
2018-07-09T21:29:39.492Z,13.97
2018-07-09T21:32:08.443Z,12.77
2018-07-09T21:34:35.831Z,12.23
2018-07-09T21:37:03.189Z,12.10
2018-07-09T21:39:30.552Z,12.77
2018-07-09T21:41:57.923Z,12.10
2018-07-09T21:44:26.132Z,11.80
2018-07-09T21:46:53.496Z,11.30
2018-07-09T21:49:20.894Z,10.50
2018-07-09T21:51:48.325Z,10.57
2018-07-09T21:54:15.671Z,9.30
2018-07-09T21:56:43.225Z,9.27
2018-07-09T21:59:10.573Z,9.37
2018-07-09T22:01:37.943Z,10.30
2018-07-09T22:04:05.614Z,11.70
2018-07-09T22:06:32.972Z,13.17
2018-07-09T22:09:00.317Z,13.60
2018-07-09T22:11:28.565Z,11.77
2018-07-09T22:13:56.165Z,12.10
2018-07-09T22:16:23.519Z,11.93
2018-07-09T22:18:51.081Z,9.60
2018-07-09T22:21:18.527Z,8.17
2018-07-09T22:23:45.873Z,7.80
2018-07-09T22:26:14.237Z,8.50
2018-07-09T22:28:41.584Z,9.80
2018-07-09T22:31:10.183Z,9.90
2018-07-09T22:33:38.868Z,10.20
2018-07-09T22:36:07.385Z,9.20
2018-07-09T22:38:36.303Z,10.10
2018-07-09T22:41:04.824Z,9.43
2018-07-09T22:43:44.589Z,7.80
2018-07-09T22:46:13.094Z,9.87
2018-07-09T22:48:41.579Z,9.20
2018-07-09T22:51:10.170Z,9.77
2018-07-09T22:53:38.634Z,8.70
2018-07-09T22:56:10.639Z,8.87
2018-07-09T22:58:41.232Z,8.20
2018-07-09T23:01:09.816Z,7.97
2018-07-09T23:03:38.348Z,8.60
2018-07-09T23:06:06.817Z,10.50
2018-07-09T23:08:35.321Z,8.67
2018-07-09T23:12:12.925Z,8.80
2018-07-09T23:14:53.116Z,6.70
2018-07-09T23:18:32.977Z,6.50
2018-07-09T23:23:15.912Z,8.00
2018-07-09T23:25:43.305Z,8.50
2018-07-09T23:28:10.665Z,6.10
2018-07-09T23:30:38.029Z,5.60
2018-07-09T23:33:05.711Z,3.43
2018-07-09T23:35:33.068Z,3.50
2018-07-09T23:38:00.409Z,3.13
2018-07-09T23:40:27.799Z,2.93
2018-07-09T23:42:55.162Z,2.53
2018-07-09T23:45:22.491Z,2.50
2018-07-09T23:47:50.219Z,2.57
2018-07-09T23:50:17.580Z,2.50
2018-07-09T23:52:44.938Z,2.60
2018-07-09T23:55:12.356Z,3.30
